CW3847 La Orotava ES current weather conditions

sailwx.info

Wind from 319 at 3 knots gusting 10

Air temperature 14.4° C
Dewpoint 13.3° C

Last reported at 2014-Nov-23 03:46 UTC.
Time now 2014-Nov-23 04:50 UTC

Location: N 28°23' W 016°31'.
View on Google Maps.

See reports from other nearby stations

  
Tides and Currents Weather Stations Pressure Air Temp Water Temp Dewpoint Dewpoint Depression Visibility Wind Speed Wind Dir Waves Ship Positions
date/time (UTC)wind fromknots sea level pressurealtimeterstation pressurevisibilityair tempwater tempwave heightnotes
2014-Nov-23 03:46 319 3 gusting 10 14.4
2014-Nov-23 03:26 336 13 gusting 13 15.0
2014-Nov-23 02:56 340 6 gusting 11 13.9
2014-Nov-23 02:46 355 13 gusting 18 14.4
2014-Nov-23 02:26 316 8 gusting 8 15.0
2014-Nov-23 02:16 304 10 gusting 10 15.0
2014-Nov-23 01:46 309 1 gusting 5 15.0
2014-Nov-23 01:26 316 6 gusting 8 15.6
2014-Nov-23 01:16 329 4 gusting 9 15.6
2014-Nov-23 00:56 321 8 gusting 8 15.6
2014-Nov-23 00:36 346 7 gusting 10 15.6
2014-Nov-23 00:26 318 8 gusting 13 15.6
2014-Nov-23 00:06 297 13 gusting 19 16.1
2014-Nov-22 23:56 306 2 gusting 8 16.1
2014-Nov-22 23:36 281 2 gusting 5 16.1
2014-Nov-22 23:06 340 6 gusting 9 15.6
2014-Nov-22 22:56 238 3 gusting 4 15.6
2014-Nov-22 22:26 344 4 gusting 6 16.1
2014-Nov-22 21:56 333 6 gusting 7 16.1
2014-Nov-22 21:36 326 4 gusting 11 16.1
2014-Nov-22 21:26 304 2 gusting 2 16.1
2014-Nov-22 21:16 321 2 gusting 4 16.1
2014-Nov-22 20:56 335 2 gusting 5 16.1
2014-Nov-22 20:36 312 4 gusting 10 16.7
2014-Nov-22 20:26 306 1 gusting 2 16.1
2014-Nov-22 20:16 244 2 gusting 3 16.1
2014-Nov-22 19:26 231 2 gusting 2 16.7
2014-Nov-22 19:16 182 1 gusting 2 16.7
2014-Nov-22 19:06 181 1 gusting 3 16.7
2014-Nov-22 18:56 215 3 gusting 5 17.2
2014-Nov-22 18:36 246 1 gusting 2 17.8
2014-Nov-22 18:26 327 1 gusting 2 17.8
2014-Nov-22 18:16 269 1 gusting 1 17.8
2014-Nov-22 17:56 221 2 gusting 2 17.8
2014-Nov-22 17:26 258 1 gusting 2 18.3
2014-Nov-22 17:16 261 2 gusting 5 18.3
2014-Nov-22 16:56 273 2 gusting 6 18.3
2014-Nov-22 16:46 275 2 gusting 3 18.9
2014-Nov-22 16:26 315 0 gusting 2 18.9
2014-Nov-22 16:06 257 0 gusting 2 18.9
2014-Nov-22 15:56 262 2 gusting 2 18.9
2014-Nov-22 15:26 301 2 gusting 4 19.4
2014-Nov-22 15:16 310 3 gusting 3 18.9
2014-Nov-22 14:56 236 0 gusting 3 18.3
2014-Nov-22 14:36 244 2 gusting 2 18.3
2014-Nov-22 14:16 319 6 gusting 7 18.9
2014-Nov-22 13:56 316 3 gusting 6 18.9
2014-Nov-22 13:46 304 7 gusting 7 19.4
2014-Nov-22 13:16 296 2 gusting 3 18.9
2014-Nov-22 12:56 321 4 gusting 6 18.3
2014-Nov-22 12:46 329 2 gusting 4 18.3
2014-Nov-22 12:36 302 2 gusting 6 17.8
2014-Nov-22 12:26 297 2 gusting 2 17.8
2014-Nov-22 12:16 311 2 gusting 6 17.2
2014-Nov-22 11:46 250 1 gusting 2 16.1
2014-Nov-22 11:06 282 2 gusting 2 16.1
2014-Nov-22 10:56 275 5 gusting 5 16.1
2014-Nov-22 10:46 202 2 gusting 6 16.1
2014-Nov-22 09:56 313 2 gusting 2 15.0
2014-Nov-22 09:46 336 2 gusting 2 15.6
2014-Nov-22 09:06 248 2 gusting 3 15.0
2014-Nov-22 08:56 261 2 gusting 3 15.6
2014-Nov-22 08:46 310 2 gusting 3 15.6
2014-Nov-22 08:26 219 2 gusting 4 15.6
2014-Nov-22 08:16 243 6 gusting 6 15.6
2014-Nov-22 07:56 229 2 gusting 2 15.6
2014-Nov-22 07:26 263 6 gusting 6 15.6
2014-Nov-22 07:16 277 2 gusting 5 15.6
2014-Nov-22 06:56 292 1 gusting 4 15.6
2014-Nov-22 06:26 297 2 gusting 2 15.6
2014-Nov-22 06:16 306 2 gusting 5 15.6
2014-Nov-22 05:56 278 5 gusting 5 15.0
2014-Nov-22 05:16 265 2 gusting 6 15.0
2014-Nov-22 04:56 259 7 gusting 8 14.4
2014-Nov-22 04:46 175 2 gusting 4 13.9
2014-Nov-22 04:26 131 1 gusting 2 14.4
2014-Nov-22 04:16 207 1 gusting 2 15.0
2014-Nov-22 03:56 209 4 gusting 7 15.0
2014-Nov-22 03:46 200 5 gusting 6 15.0
2014-Nov-22 03:26 259 6 gusting 8 15.6
2014-Nov-22 03:16 286 2 gusting 4 15.6
2014-Nov-22 02:56 223 6 gusting 7 15.0
2014-Nov-22 02:46 261 4 gusting 7 15.0
2014-Nov-22 02:26 237 5 gusting 6 15.0
2014-Nov-22 02:16 231 4 gusting 9 14.4
2014-Nov-22 01:36 211 0 gusting 1 15.0
2014-Nov-22 01:16 232 2 gusting 4 15.0
2014-Nov-22 00:56 178 2 gusting 3 14.4
2014-Nov-22 00:46 186 2 gusting 2 15.0
2014-Nov-22 00:36 159 1 gusting 2 15.0
2014-Nov-22 00:06 213 4 gusting 5 15.0
2014-Nov-21 23:56 216 2 gusting 3 15.0
2014-Nov-21 23:36 200 2 gusting 4 15.0
2014-Nov-21 23:16 165 2 gusting 3 14.4
2014-Nov-21 22:46 159 3 gusting 4 14.4
2014-Nov-21 22:36 071 1 gusting 2 15.0
2014-Nov-21 22:06 172 1 gusting 3 14.4
2014-Nov-21 21:56 173 2 gusting 3 15.0
2014-Nov-21 21:46 169 3 gusting 3 15.0
2014-Nov-21 21:26 179 4 gusting 5 15.0
2014-Nov-21 21:06 198 1 gusting 1 15.0
2014-Nov-21 20:56 190 2 gusting 2 14.4
2014-Nov-21 20:46 159 2 gusting 3 14.4
2014-Nov-21 20:26 172 1 gusting 1 15.0
2014-Nov-21 20:06 211 3 gusting 3 15.0
2014-Nov-21 19:46 218 3 gusting 6 15.0
2014-Nov-21 19:16 203 2 gusting 4 14.4
2014-Nov-21 18:56 302 1 gusting 2 15.0
2014-Nov-21 18:26 234 5 gusting 5 15.0
2014-Nov-21 18:16 234 3 gusting 3 15.0
2014-Nov-21 17:56 238 6 gusting 6 15.0
2014-Nov-21 17:46 261 4 gusting 5 15.6
2014-Nov-21 17:26 263 0 gusting 2 16.1
2014-Nov-21 17:16 296 2 gusting 7 16.1
2014-Nov-21 16:56 213 1 gusting 2 15.6
2014-Nov-21 16:36 230 4 gusting 4 15.0
2014-Nov-21 16:26 219 1 gusting 5 15.0
2014-Nov-21 15:56 333 2 gusting 6 15.0
2014-Nov-21 15:46 272 4 gusting 5 15.6
2014-Nov-21 15:26 026 1 gusting 2 15.6
2014-Nov-21 15:16 309 1 gusting 2 16.1
2014-Nov-21 14:36 294 2 gusting 4 17.2
2014-Nov-21 14:06 278 2 gusting 2 16.7
2014-Nov-21 13:56 200 0 gusting 1 16.1
2014-Nov-21 13:46 111 1 gusting 1 16.1
2014-Nov-21 13:26 240 0 gusting 2 16.1
2014-Nov-21 13:16 281 1 gusting 2 16.1
2014-Nov-21 12:56 334 1 gusting 6 16.7
2014-Nov-21 12:36 319 3 gusting 5 17.2
2014-Nov-21 12:06 312 0 gusting 1 17.2
2014-Nov-21 11:56 274 0 gusting 2 17.2
2014-Nov-21 11:46 327 2 gusting 3 17.2
2014-Nov-21 10:46 210 2 gusting 6 14.4
2014-Nov-21 10:16 250 3 gusting 6 14.4
2014-Nov-21 09:56 207 0 gusting 1 15.0
2014-Nov-21 09:46 171 14.4
2014-Nov-21 09:06 175 1 gusting 1 13.3
2014-Nov-21 08:56 163 4 gusting 5 13.3
2014-Nov-21 08:36 190 2 gusting 4 12.8
2014-Nov-21 08:26 225 4 gusting 6 12.8
2014-Nov-21 08:16 207 2 gusting 2 12.8
2014-Nov-21 07:46 222 1 gusting 3 12.8
2014-Nov-21 07:26 183 2 gusting 6 12.2
2014-Nov-21 07:06 244 6 gusting 6 12.2
2014-Nov-21 06:56 245 2 gusting 4 12.2
2014-Nov-21 06:46 177 3 gusting 5 11.7
2014-Nov-21 06:16 269 1 gusting 2 12.2
2014-Nov-21 05:46 181 2 gusting 4 12.2
2014-Nov-21 05:16 196 1 gusting 2 12.2
2014-Nov-21 04:56 161 2 gusting 6 12.2
2014-Nov-21 04:46 169 1 gusting 2 12.2
2014-Nov-21 04:26 173 0 gusting 6 11.7
2014-Nov-21 04:16 204 2 gusting 2 11.7